<?xml version="1.0" encoding="UTF-8" standalone="no"?>
<gpx xmlns="http://www.topografix.com/GPX/1/0" creator="GlobalMotion" version="1.0" xmlns:xsi="http://www.w3.org/2001/XMLSchema-instance" xsi:schemaLocation="http://www.topografix.com/GPX/1/0 http://www.topografix.com/GPX/1/0/gpx.xsd"><trk>
<trkseg>
<trkpt lat="31.841271669" lon="34.993223073">
  <ele>257.770752</ele>
  <time>2009-10-23T04:18:10Z</time>
</trkpt>
<trkpt lat="31.840858189" lon="34.992748238">
  <ele>256.809326</ele>
  <time>2009-10-23T04:18:24Z</time>
</trkpt>
<trkpt lat="31.840564571" lon="34.992543133">
  <ele>256.328735</ele>
  <time>2009-10-23T04:18:32Z</time>
</trkpt>
<trkpt lat="31.840229463" lon="34.992529219">
  <ele>256.328735</ele>
  <time>2009-10-23T04:18:57Z</time>
</trkpt>
<trkpt lat="31.839337545" lon="34.992889222">
  <ele>261.135254</ele>
  <time>2009-10-23T04:19:31Z</time>
</trkpt>
<trkpt lat="31.839029258" lon="34.992854856">
  <ele>264.499878</ele>
  <time>2009-10-23T04:19:47Z</time>
</trkpt>
<trkpt lat="31.838682080" lon="34.992700377">
  <ele>266.903198</ele>
  <time>2009-10-23T04:20:03Z</time>
</trkpt>
<trkpt lat="31.838328531" lon="34.992643800">
  <ele>267.864502</ele>
  <time>2009-10-23T04:20:17Z</time>
</trkpt>
<trkpt lat="31.837462764" lon="34.992784867">
  <ele>271.229126</ele>
  <time>2009-10-23T04:20:57Z</time>
</trkpt>
<trkpt lat="31.836919785" lon="34.992930377">
  <ele>276.035645</ele>
  <time>2009-10-23T04:21:30Z</time>
</trkpt>
<trkpt lat="31.836795481" lon="34.992902381">
  <ele>276.997070</ele>
  <time>2009-10-23T04:21:38Z</time>
</trkpt>
<trkpt lat="31.836728929" lon="34.992839433">
  <ele>277.958252</ele>
  <time>2009-10-23T04:21:43Z</time>
</trkpt>
<trkpt lat="31.836697245" lon="34.992669448">
  <ele>278.438965</ele>
  <time>2009-10-23T04:21:50Z</time>
</trkpt>
<trkpt lat="31.836803444" lon="34.992284300">
  <ele>276.516357</ele>
  <time>2009-10-23T04:22:01Z</time>
</trkpt>
<trkpt lat="31.836941158" lon="34.991543340">
  <ele>276.516357</ele>
  <time>2009-10-23T04:22:18Z</time>
</trkpt>
<trkpt lat="31.837064959" lon="34.991262965">
  <ele>276.516357</ele>
  <time>2009-10-23T04:22:26Z</time>
</trkpt>
<trkpt lat="31.837328067" lon="34.990958534">
  <ele>275.074463</ele>
  <time>2009-10-23T04:22:34Z</time>
</trkpt>
<trkpt lat="31.837878339" lon="34.990445729">
  <ele>271.709717</ele>
  <time>2009-10-23T04:22:48Z</time>
</trkpt>
<trkpt lat="31.837862665" lon="34.990087487">
  <ele>271.709717</ele>
  <time>2009-10-23T04:22:55Z</time>
</trkpt>
<trkpt lat="31.837751772" lon="34.989883639">
  <ele>271.709717</ele>
  <time>2009-10-23T04:22:59Z</time>
</trkpt>
<trkpt lat="31.837409791" lon="34.989532353">
  <ele>271.229126</ele>
  <time>2009-10-23T04:23:07Z</time>
</trkpt>
<trkpt lat="31.836972758" lon="34.989217361">
  <ele>272.671143</ele>
  <time>2009-10-23T04:23:19Z</time>
</trkpt>
<trkpt lat="31.836811323" lon="34.989199089">
  <ele>273.151855</ele>
  <time>2009-10-23T04:23:24Z</time>
</trkpt>
<trkpt lat="31.836624658" lon="34.989247452">
  <ele>273.632446</ele>
  <time>2009-10-23T04:23:30Z</time>
</trkpt>
<trkpt lat="31.836388037" lon="34.989383239">
  <ele>276.035645</ele>
  <time>2009-10-23T04:23:41Z</time>
</trkpt>
<trkpt lat="31.835809769" lon="34.989476698">
  <ele>277.958252</ele>
  <time>2009-10-23T04:24:03Z</time>
</trkpt>
<trkpt lat="31.835205350" lon="34.989638887">
  <ele>276.516357</ele>
  <time>2009-10-23T04:24:21Z</time>
</trkpt>
<trkpt lat="31.834623981" lon="34.989689263">
  <ele>273.151855</ele>
  <time>2009-10-23T04:24:35Z</time>
</trkpt>
<trkpt lat="31.834273366" lon="34.989581220">
  <ele>269.306519</ele>
  <time>2009-10-23T04:24:40Z</time>
</trkpt>
<trkpt lat="31.833631732" lon="34.989539143">
  <ele>266.422485</ele>
  <time>2009-10-23T04:24:48Z</time>
</trkpt>
<trkpt lat="31.832731850" lon="34.989657495">
  <ele>263.538574</ele>
  <time>2009-10-23T04:25:04Z</time>
</trkpt>
<trkpt lat="31.832492631" lon="34.989752881">
  <ele>264.980591</ele>
  <time>2009-10-23T04:25:10Z</time>
</trkpt>
<trkpt lat="31.832017545" lon="34.989702757">
  <ele>262.577148</ele>
  <time>2009-10-23T04:25:20Z</time>
</trkpt>
<trkpt lat="31.831767932" lon="34.989770148">
  <ele>261.135254</ele>
  <time>2009-10-23T04:25:24Z</time>
</trkpt>
<trkpt lat="31.831039460" lon="34.989806525">
  <ele>254.406006</ele>
  <time>2009-10-23T04:25:33Z</time>
</trkpt>
<trkpt lat="31.830717092" lon="34.989918172">
  <ele>253.925415</ele>
  <time>2009-10-23T04:25:40Z</time>
</trkpt>
<trkpt lat="31.830468317" lon="34.990054294">
  <ele>252.963989</ele>
  <time>2009-10-23T04:25:45Z</time>
</trkpt>
<trkpt lat="31.830332447" lon="34.990173820">
  <ele>252.963989</ele>
  <time>2009-10-23T04:25:50Z</time>
</trkpt>
<trkpt lat="31.830059951" lon="34.990283037">
  <ele>250.560791</ele>
  <time>2009-10-23T04:25:58Z</time>
</trkpt>
<trkpt lat="31.829834394" lon="34.990447238">
  <ele>249.599487</ele>
  <time>2009-10-23T04:26:03Z</time>
</trkpt>
<trkpt lat="31.829761472" lon="34.990584953">
  <ele>249.118774</ele>
  <time>2009-10-23T04:26:07Z</time>
</trkpt>
<trkpt lat="31.829651333" lon="34.990664078">
  <ele>247.196045</ele>
  <time>2009-10-23T04:26:11Z</time>
</trkpt>
<trkpt lat="31.829401888" lon="34.990685116">
  <ele>244.792847</ele>
  <time>2009-10-23T04:26:15Z</time>
</trkpt>
<trkpt lat="31.829091590" lon="34.990857281">
  <ele>244.312256</ele>
  <time>2009-10-23T04:26:23Z</time>
</trkpt>
<trkpt lat="31.828823537" lon="34.991059117">
  <ele>246.715454</ele>
  <time>2009-10-23T04:28:43Z</time>
</trkpt>
<trkpt lat="31.828526985" lon="34.991376456">
  <ele>249.118774</ele>
  <time>2009-10-23T04:28:59Z</time>
</trkpt>
<trkpt lat="31.827813769" lon="34.992416231">
  <ele>241.908936</ele>
  <time>2009-10-23T04:29:22Z</time>
</trkpt>
<trkpt lat="31.827646131" lon="34.992763996">
  <ele>240.467041</ele>
  <time>2009-10-23T04:29:26Z</time>
</trkpt>
<trkpt lat="31.827476146" lon="34.993009754">
  <ele>240.947632</ele>
  <time>2009-10-23T04:29:30Z</time>
</trkpt>
<trkpt lat="31.827208763" lon="34.993569162">
  <ele>241.428223</ele>
  <time>2009-10-23T04:29:44Z</time>
</trkpt>
<trkpt lat="31.827113628" lon="34.993979959">
  <ele>247.676758</ele>
  <time>2009-10-23T04:30:00Z</time>
</trkpt>
<trkpt lat="31.826867620" lon="34.994679345">
  <ele>248.638184</ele>
  <time>2009-10-23T04:30:26Z</time>
</trkpt>
<trkpt lat="31.826859573" lon="34.995007748">
  <ele>251.041382</ele>
  <time>2009-10-23T04:30:40Z</time>
</trkpt>
<trkpt lat="31.826724457" lon="34.995357692">
  <ele>251.522095</ele>
  <time>2009-10-23T04:30:56Z</time>
</trkpt>
<trkpt lat="31.826666286" lon="34.996044422">
  <ele>249.599487</ele>
  <time>2009-10-23T04:31:10Z</time>
</trkpt>
<trkpt lat="31.826687576" lon="34.996244246">
  <ele>251.041382</ele>
  <time>2009-10-23T04:31:16Z</time>
</trkpt>
<trkpt lat="31.826957222" lon="34.996590083">
  <ele>257.770752</ele>
  <time>2009-10-23T04:31:55Z</time>
</trkpt>
<trkpt lat="31.827052943" lon="34.996798038">
  <ele>260.654541</ele>
  <time>2009-10-23T04:32:16Z</time>
</trkpt>
<trkpt lat="31.827075155" lon="34.997038096">
  <ele>264.019287</ele>
  <time>2009-10-23T04:32:45Z</time>
</trkpt>
<trkpt lat="31.827033078" lon="34.997266252">
  <ele>265.461304</ele>
  <time>2009-10-23T04:33:02Z</time>
</trkpt>
<trkpt lat="31.827028971" lon="34.997820631">
  <ele>266.422485</ele>
  <time>2009-10-23T04:33:36Z</time>
</trkpt>
<trkpt lat="31.827077838" lon="34.998011990">
  <ele>267.383911</ele>
  <time>2009-10-23T04:33:46Z</time>
</trkpt>
<trkpt lat="31.827105498" lon="34.998577433">
  <ele>268.345093</ele>
  <time>2009-10-23T04:34:11Z</time>
</trkpt>
<trkpt lat="31.827049674" lon="34.999196185">
  <ele>266.903198</ele>
  <time>2009-10-23T04:34:31Z</time>
</trkpt>
<trkpt lat="31.827102397" lon="34.999518553">
  <ele>266.903198</ele>
  <time>2009-10-23T04:34:36Z</time>
</trkpt>
<trkpt lat="31.827161741" lon="34.999668589">
  <ele>266.422485</ele>
  <time>2009-10-23T04:34:40Z</time>
</trkpt>
<trkpt lat="31.827102648" lon="34.999751654">
  <ele>264.499878</ele>
  <time>2009-10-23T04:34:44Z</time>
</trkpt>
<trkpt lat="31.826892765" lon="34.999753581">
  <ele>261.135254</ele>
  <time>2009-10-23T04:34:49Z</time>
</trkpt>
<trkpt lat="31.826733928" lon="34.999949634">
  <ele>256.809326</ele>
  <time>2009-10-23T04:34:54Z</time>
</trkpt>
<trkpt lat="31.826736694" lon="35.000090450">
  <ele>255.367310</ele>
  <time>2009-10-23T04:34:57Z</time>
</trkpt>
<trkpt lat="31.827013381" lon="35.000320869">
  <ele>253.925415</ele>
  <time>2009-10-23T04:35:07Z</time>
</trkpt>
<trkpt lat="31.827428369" lon="35.000432935">
  <ele>256.809326</ele>
  <time>2009-10-23T04:35:29Z</time>
</trkpt>
<trkpt lat="31.827595923" lon="35.000549024">
  <ele>256.809326</ele>
  <time>2009-10-23T04:35:37Z</time>
</trkpt>
<trkpt lat="31.827969672" lon="35.000939369">
  <ele>257.290039</ele>
  <time>2009-10-23T04:35:53Z</time>
</trkpt>
<trkpt lat="31.828652546" lon="35.002020132">
  <ele>260.654541</ele>
  <time>2009-10-23T04:36:36Z</time>
</trkpt>
<trkpt lat="31.828842899" lon="35.002169833">
  <ele>261.135254</ele>
  <time>2009-10-23T04:36:44Z</time>
</trkpt>
<trkpt lat="31.830314426" lon="35.003009867">
  <ele>266.422485</ele>
  <time>2009-10-23T04:37:42Z</time>
</trkpt>
<trkpt lat="31.830389779" lon="35.003150348">
  <ele>266.903198</ele>
  <time>2009-10-23T04:37:48Z</time>
</trkpt>
<trkpt lat="31.830335800" lon="35.003280267">
  <ele>266.903198</ele>
  <time>2009-10-23T04:37:53Z</time>
</trkpt>
<trkpt lat="31.828929484" lon="35.004285676">
  <ele>269.306519</ele>
  <time>2009-10-23T04:38:49Z</time>
</trkpt>
<trkpt lat="31.827759370" lon="35.004995624">
  <ele>267.864502</ele>
  <time>2009-10-23T04:39:25Z</time>
</trkpt>
<trkpt lat="31.827613357" lon="35.005178936">
  <ele>265.941895</ele>
  <time>2009-10-23T04:39:29Z</time>
</trkpt>
<trkpt lat="31.827370785" lon="35.005635247">
  <ele>264.499878</ele>
  <time>2009-10-23T04:39:36Z</time>
</trkpt>
<trkpt lat="31.827293839" lon="35.005866839">
  <ele>265.461304</ele>
  <time>2009-10-23T04:39:40Z</time>
</trkpt>
<trkpt lat="31.827366427" lon="35.005997848">
  <ele>266.903198</ele>
  <time>2009-10-23T04:39:45Z</time>
</trkpt>
<trkpt lat="31.827518390" lon="35.006082421">
  <ele>268.825806</ele>
  <time>2009-10-23T04:39:53Z</time>
</trkpt>
<trkpt lat="31.827848051" lon="35.006403951">
  <ele>274.113037</ele>
  <time>2009-10-23T04:40:44Z</time>
</trkpt>
<trkpt lat="31.827897839" lon="35.006523728">
  <ele>276.997070</ele>
  <time>2009-10-23T04:41:04Z</time>
</trkpt>
<trkpt lat="31.827776888" lon="35.006825058">
  <ele>284.687622</ele>
  <time>2009-10-23T04:42:00Z</time>
</trkpt>
<trkpt lat="31.827564575" lon="35.006753141">
  <ele>285.168213</ele>
  <time>2009-10-23T04:42:26Z</time>
</trkpt>
<trkpt lat="31.827363996" lon="35.006778454">
  <ele>286.610229</ele>
  <time>2009-10-23T04:43:43Z</time>
</trkpt>
<trkpt lat="31.827290235" lon="35.006931424">
  <ele>289.494141</ele>
  <time>2009-10-23T04:43:52Z</time>
</trkpt>
<trkpt lat="31.827276489" lon="35.007083556">
  <ele>290.936157</ele>
  <time>2009-10-23T04:44:01Z</time>
</trkpt>
<trkpt lat="31.827174397" lon="35.007241555">
  <ele>290.936157</ele>
  <time>2009-10-23T04:44:10Z</time>
</trkpt>
<trkpt lat="31.827121172" lon="35.007424699">
  <ele>291.416748</ele>
  <time>2009-10-23T04:44:19Z</time>
</trkpt>
<trkpt lat="31.827138523" lon="35.007571466">
  <ele>292.858765</ele>
  <time>2009-10-23T04:44:28Z</time>
</trkpt>
<trkpt lat="31.827073731" lon="35.007796185">
  <ele>293.339355</ele>
  <time>2009-10-23T04:44:42Z</time>
</trkpt>
<trkpt lat="31.826845072" lon="35.008035488">
  <ele>292.858765</ele>
  <time>2009-10-23T04:44:56Z</time>
</trkpt>
<trkpt lat="31.826404184" lon="35.008793296">
  <ele>294.781372</ele>
  <time>2009-10-23T04:45:31Z</time>
</trkpt>
<trkpt lat="31.826345762" lon="35.009171152">
  <ele>292.858765</ele>
  <time>2009-10-23T04:45:41Z</time>
</trkpt>
<trkpt lat="31.826545754" lon="35.010238336">
  <ele>294.781372</ele>
  <time>2009-10-23T04:46:06Z</time>
</trkpt>
<trkpt lat="31.826644577" lon="35.010435563">
  <ele>295.742676</ele>
  <time>2009-10-23T04:46:14Z</time>
</trkpt>
<trkpt lat="31.827077167" lon="35.010734964">
  <ele>296.704102</ele>
  <time>2009-10-23T04:46:34Z</time>
</trkpt>
<trkpt lat="31.827378245" lon="35.011171577">
  <ele>297.184692</ele>
  <time>2009-10-23T04:46:46Z</time>
</trkpt>
<trkpt lat="31.827572118" lon="35.011798041">
  <ele>304.875244</ele>
  <time>2009-10-23T04:47:20Z</time>
</trkpt>
<trkpt lat="31.827815697" lon="35.012332052">
  <ele>309.681885</ele>
  <time>2009-10-23T04:47:57Z</time>
</trkpt>
<trkpt lat="31.828063885" lon="35.012608487">
  <ele>309.201172</ele>
  <time>2009-10-23T04:48:13Z</time>
</trkpt>
<trkpt lat="31.828150218" lon="35.012790374">
  <ele>308.720459</ele>
  <time>2009-10-23T04:48:19Z</time>
</trkpt>
<trkpt lat="31.828243425" lon="35.013127076">
  <ele>308.720459</ele>
  <time>2009-10-23T04:48:33Z</time>
</trkpt>
<trkpt lat="31.828254741" lon="35.013547931">
  <ele>309.681885</ele>
  <time>2009-10-23T04:48:50Z</time>
</trkpt>
<trkpt lat="31.828457667" lon="35.014092084">
  <ele>306.797852</ele>
  <time>2009-10-23T04:48:59Z</time>
</trkpt>
<trkpt lat="31.828466468" lon="35.014610924">
  <ele>304.875244</ele>
  <time>2009-10-23T04:54:55Z</time>
</trkpt>
<trkpt lat="31.828427827" lon="35.014500367">
  <ele>304.394653</ele>
  <time>2009-10-23T04:55:25Z</time>
</trkpt>
<trkpt lat="31.828313163" lon="35.014518891">
  <ele>302.471924</ele>
  <time>2009-10-23T04:55:29Z</time>
</trkpt>
<trkpt lat="31.828155583" lon="35.014684349">
  <ele>297.665405</ele>
  <time>2009-10-23T04:55:36Z</time>
</trkpt>
<trkpt lat="31.827950981" lon="35.014723577">
  <ele>292.378174</ele>
  <time>2009-10-23T04:55:41Z</time>
</trkpt>
<trkpt lat="31.827811757" lon="35.014849389">
  <ele>290.936157</ele>
  <time>2009-10-23T04:55:45Z</time>
</trkpt>
<trkpt lat="31.827610675" lon="35.015407959">
  <ele>288.532959</ele>
  <time>2009-10-23T04:55:54Z</time>
</trkpt>
<trkpt lat="31.827465668" lon="35.015619434">
  <ele>288.052246</ele>
  <time>2009-10-23T04:55:58Z</time>
</trkpt>
<trkpt lat="31.827192334" lon="35.015838537">
  <ele>289.974854</ele>
  <time>2009-10-23T04:56:08Z</time>
</trkpt>
<trkpt lat="31.826895447" lon="35.015458586">
  <ele>287.571411</ele>
  <time>2009-10-23T04:56:18Z</time>
</trkpt>
<trkpt lat="31.826640135" lon="35.015369738">
  <ele>286.610229</ele>
  <time>2009-10-23T04:56:22Z</time>
</trkpt>
<trkpt lat="31.826328244" lon="35.015340652">
  <ele>285.168213</ele>
  <time>2009-10-23T04:56:27Z</time>
</trkpt>
<trkpt lat="31.825966733" lon="35.015436625">
  <ele>284.206909</ele>
  <time>2009-10-23T04:56:33Z</time>
</trkpt>
<trkpt lat="31.825343873" lon="35.015816996">
  <ele>283.245605</ele>
  <time>2009-10-23T04:56:48Z</time>
</trkpt>
<trkpt lat="31.824927796" lon="35.016155457">
  <ele>282.284302</ele>
  <time>2009-10-23T04:57:00Z</time>
</trkpt>
<trkpt lat="31.824765271" lon="35.016410938">
  <ele>281.803589</ele>
  <time>2009-10-23T04:57:06Z</time>
</trkpt>
<trkpt lat="31.824836517" lon="35.016845120">
  <ele>283.245605</ele>
  <time>2009-10-23T04:57:22Z</time>
</trkpt>
<trkpt lat="31.824821094" lon="35.017094817">
  <ele>284.206909</ele>
  <time>2009-10-23T04:57:30Z</time>
</trkpt>
<trkpt lat="31.824527644" lon="35.018153451">
  <ele>284.687622</ele>
  <time>2009-10-23T04:57:59Z</time>
</trkpt>
<trkpt lat="31.824435443" lon="35.018381691">
  <ele>285.168213</ele>
  <time>2009-10-23T04:58:07Z</time>
</trkpt>
<trkpt lat="31.823932445" lon="35.019149473">
  <ele>286.129517</ele>
  <time>2009-10-23T04:58:34Z</time>
</trkpt>
<trkpt lat="31.823396757" lon="35.019746851">
  <ele>284.206909</ele>
  <time>2009-10-23T04:58:53Z</time>
</trkpt>
<trkpt lat="31.823296174" lon="35.019991100">
  <ele>285.168213</ele>
  <time>2009-10-23T04:58:59Z</time>
</trkpt>
<trkpt lat="31.823161645" lon="35.020622090">
  <ele>288.532959</ele>
  <time>2009-10-23T04:59:18Z</time>
</trkpt>
<trkpt lat="31.823248649" lon="35.021062391">
  <ele>290.936157</ele>
  <time>2009-10-23T04:59:34Z</time>
</trkpt>
<trkpt lat="31.823063828" lon="35.022360245">
  <ele>296.704102</ele>
  <time>2009-10-23T05:00:25Z</time>
</trkpt>
<trkpt lat="31.823105067" lon="35.023418963">
  <ele>293.339355</ele>
  <time>2009-10-23T05:00:48Z</time>
</trkpt>
<trkpt lat="31.823069360" lon="35.024359496">
  <ele>292.378174</ele>
  <time>2009-10-23T05:01:02Z</time>
</trkpt>
<trkpt lat="31.823152844" lon="35.025525587">
  <ele>291.897461</ele>
  <time>2009-10-23T05:01:25Z</time>
</trkpt>
<trkpt lat="31.823302796" lon="35.025839070">
  <ele>290.936157</ele>
  <time>2009-10-23T05:01:32Z</time>
</trkpt>
<trkpt lat="31.823369265" lon="35.025883662">
  <ele>291.416748</ele>
  <time>2009-10-23T05:01:34Z</time>
</trkpt>
<trkpt lat="31.823801519" lon="35.025973096">
  <ele>295.261963</ele>
  <time>2009-10-23T05:01:48Z</time>
</trkpt>
<trkpt lat="31.823957926" lon="35.026052976">
  <ele>295.742676</ele>
  <time>2009-10-23T05:01:54Z</time>
</trkpt>
<trkpt lat="31.824259842" lon="35.026543988">
  <ele>294.300781</ele>
  <time>2009-10-23T05:02:06Z</time>
</trkpt>
<trkpt lat="31.824472742" lon="35.026739622">
  <ele>295.261963</ele>
  <time>2009-10-23T05:02:13Z</time>
</trkpt>
<trkpt lat="31.824932490" lon="35.027006418">
  <ele>296.223511</ele>
  <time>2009-10-23T05:02:29Z</time>
</trkpt>
<trkpt lat="31.825148324" lon="35.027188389">
  <ele>296.223511</ele>
  <time>2009-10-23T05:02:38Z</time>
</trkpt>
<trkpt lat="31.825459879" lon="35.027586864">
  <ele>298.146118</ele>
  <time>2009-10-23T05:02:53Z</time>
</trkpt>
<trkpt lat="31.825818038" lon="35.028249370">
  <ele>298.626709</ele>
  <time>2009-10-23T05:03:13Z</time>
</trkpt>
<trkpt lat="31.826232523" lon="35.028739292">
  <ele>301.510620</ele>
  <time>2009-10-23T05:03:32Z</time>
</trkpt>
<trkpt lat="31.826416422" lon="35.029336167">
  <ele>302.471924</ele>
  <time>2009-10-23T05:03:50Z</time>
</trkpt>
<trkpt lat="31.826857058" lon="35.029999092">
  <ele>304.394653</ele>
  <time>2009-10-23T05:04:15Z</time>
</trkpt>
<trkpt lat="31.827045232" lon="35.030109650">
  <ele>305.836670</ele>
  <time>2009-10-23T05:04:22Z</time>
</trkpt>
<trkpt lat="31.827266179" lon="35.030153068">
  <ele>306.317261</ele>
  <time>2009-10-23T05:04:30Z</time>
</trkpt>
<trkpt lat="31.827677395" lon="35.030401256">
  <ele>307.278564</ele>
  <time>2009-10-23T05:04:47Z</time>
</trkpt>
<trkpt lat="31.828218531" lon="35.030535031">
  <ele>309.201172</ele>
  <time>2009-10-23T05:05:11Z</time>
</trkpt>
<trkpt lat="31.828603344" lon="35.030777771">
  <ele>312.085205</ele>
  <time>2009-10-23T05:05:30Z</time>
</trkpt>
<trkpt lat="31.828678949" lon="35.030860752">
  <ele>313.046509</ele>
  <time>2009-10-23T05:05:35Z</time>
</trkpt>
<trkpt lat="31.828765869" lon="35.030893777">
  <ele>313.527222</ele>
  <time>2009-10-23T05:05:41Z</time>
</trkpt>
<trkpt lat="31.829013387" lon="35.030844323">
  <ele>316.411011</ele>
  <time>2009-10-23T05:05:58Z</time>
</trkpt>
<trkpt lat="31.829202147" lon="35.030858573">
  <ele>317.853027</ele>
  <time>2009-10-23T05:06:11Z</time>
</trkpt>
<trkpt lat="31.829437343" lon="35.030966531">
  <ele>318.333618</ele>
  <time>2009-10-23T05:06:27Z</time>
</trkpt>
<trkpt lat="31.829502471" lon="35.031046495">
  <ele>318.814331</ele>
  <time>2009-10-23T05:06:33Z</time>
</trkpt>
<trkpt lat="31.830186937" lon="35.031474391">
  <ele>324.101562</ele>
  <time>2009-10-23T05:07:19Z</time>
</trkpt>
<trkpt lat="31.831022361" lon="35.032178890">
  <ele>331.311523</ele>
  <time>2009-10-23T05:08:20Z</time>
</trkpt>
<trkpt lat="31.831516055" lon="35.032435125">
  <ele>336.118164</ele>
  <time>2009-10-23T05:08:58Z</time>
</trkpt>
<trkpt lat="31.831782600" lon="35.032644924">
  <ele>339.482666</ele>
  <time>2009-10-23T05:09:24Z</time>
</trkpt>
<trkpt lat="31.831920566" lon="35.032849694">
  <ele>341.405273</ele>
  <time>2009-10-23T05:09:42Z</time>
</trkpt>
<trkpt lat="31.832393138" lon="35.033940095">
  <ele>351.499146</ele>
  <time>2009-10-23T05:11:05Z</time>
</trkpt>
<trkpt lat="31.832522387" lon="35.034320969">
  <ele>352.941162</ele>
  <time>2009-10-23T05:11:30Z</time>
</trkpt>
<trkpt lat="31.832615593" lon="35.034493469">
  <ele>353.421875</ele>
  <time>2009-10-23T05:11:39Z</time>
</trkpt>
<trkpt lat="31.832834026" lon="35.034670327">
  <ele>353.902588</ele>
  <time>2009-10-23T05:11:52Z</time>
</trkpt>
<trkpt lat="31.832962688" lon="35.034664292">
  <ele>352.460571</ele>
  <time>2009-10-23T05:11:56Z</time>
</trkpt>
<trkpt lat="31.833353117" lon="35.034475364">
  <ele>349.576538</ele>
  <time>2009-10-23T05:12:03Z</time>
</trkpt>
<trkpt lat="31.833693171" lon="35.034445859">
  <ele>346.692627</ele>
  <time>2009-10-23T05:12:07Z</time>
</trkpt>
<trkpt lat="31.836272450" lon="35.035266029">
  <ele>326.985596</ele>
  <time>2009-10-23T05:12:33Z</time>
</trkpt>
<trkpt lat="31.838040864" lon="35.035306262">
  <ele>306.317261</ele>
  <time>2009-10-23T05:12:51Z</time>
</trkpt>
<trkpt lat="31.838272540" lon="35.035183299">
  <ele>303.913940</ele>
  <time>2009-10-23T05:12:55Z</time>
</trkpt>
<trkpt lat="31.838375973" lon="35.034958832">
  <ele>302.471924</ele>
  <time>2009-10-23T05:12:58Z</time>
</trkpt>
<trkpt lat="31.838503545" lon="35.034297165">
  <ele>297.184692</ele>
  <time>2009-10-23T05:13:04Z</time>
</trkpt>
<trkpt lat="31.838540845" lon="35.033618817">
  <ele>292.378174</ele>
  <time>2009-10-23T05:13:09Z</time>
</trkpt>
<trkpt lat="31.838713344" lon="35.033217659">
  <ele>289.013550</ele>
  <time>2009-10-23T05:13:13Z</time>
</trkpt>
<trkpt lat="31.838969747" lon="35.033071982">
  <ele>288.532959</ele>
  <time>2009-10-23T05:13:16Z</time>
</trkpt>
<trkpt lat="31.840752326" lon="35.032516262">
  <ele>278.919678</ele>
  <time>2009-10-23T05:13:36Z</time>
</trkpt>
<trkpt lat="31.841069749" lon="35.032201437">
  <ele>277.477661</ele>
  <time>2009-10-23T05:13:40Z</time>
</trkpt>
<trkpt lat="31.841513822" lon="35.031672120">
  <ele>274.113037</ele>
  <time>2009-10-23T05:13:46Z</time>
</trkpt>
<trkpt lat="31.841834849" lon="35.031601042">
  <ele>271.229126</ele>
  <time>2009-10-23T05:13:49Z</time>
</trkpt>
<trkpt lat="31.842511520" lon="35.031602466">
  <ele>267.383911</ele>
  <time>2009-10-23T05:13:55Z</time>
</trkpt>
<trkpt lat="31.842727521" lon="35.031535830">
  <ele>266.422485</ele>
  <time>2009-10-23T05:13:57Z</time>
</trkpt>
<trkpt lat="31.843202692" lon="35.031273728">
  <ele>264.980591</ele>
  <time>2009-10-23T05:14:02Z</time>
</trkpt>
<trkpt lat="31.843602844" lon="35.030931998">
  <ele>263.057861</ele>
  <time>2009-10-23T05:14:07Z</time>
</trkpt>
<trkpt lat="31.844801540" lon="35.029355446">
  <ele>255.367310</ele>
  <time>2009-10-23T05:14:26Z</time>
</trkpt>
<trkpt lat="31.844945876" lon="35.028992342">
  <ele>253.444702</ele>
  <time>2009-10-23T05:14:30Z</time>
</trkpt>
<trkpt lat="31.844970519" lon="35.028686821">
  <ele>252.002808</ele>
  <time>2009-10-23T05:14:33Z</time>
</trkpt>
<trkpt lat="31.844894243" lon="35.027849972">
  <ele>248.157593</ele>
  <time>2009-10-23T05:14:41Z</time>
</trkpt>
<trkpt lat="31.844914444" lon="35.027331049">
  <ele>246.715454</ele>
  <time>2009-10-23T05:14:46Z</time>
</trkpt>
<trkpt lat="31.845080825" lon="35.026988983">
  <ele>245.273438</ele>
  <time>2009-10-23T05:14:50Z</time>
</trkpt>
<trkpt lat="31.845220970" lon="35.026810281">
  <ele>243.831543</ele>
  <time>2009-10-23T05:14:53Z</time>
</trkpt>
<trkpt lat="31.845422052" lon="35.026638033">
  <ele>241.908936</ele>
  <time>2009-10-23T05:14:58Z</time>
</trkpt>
<trkpt lat="31.845568987" lon="35.026706094">
  <ele>241.908936</ele>
  <time>2009-10-23T05:15:03Z</time>
</trkpt>
<trkpt lat="31.845798986" lon="35.027090656">
  <ele>240.947632</ele>
  <time>2009-10-23T05:15:14Z</time>
</trkpt>
<trkpt lat="31.845755149" lon="35.027091578">
  <ele>240.467041</ele>
  <time>2009-10-23T05:17:49Z</time>
</trkpt>
<trkpt lat="31.845522886" lon="35.026667872">
  <ele>242.389648</ele>
  <time>2009-10-23T05:18:09Z</time>
</trkpt>
<trkpt lat="31.845425488" lon="35.026560584">
  <ele>242.870239</ele>
  <time>2009-10-23T05:18:17Z</time>
</trkpt>
<trkpt lat="31.845074538" lon="35.025855750">
  <ele>242.870239</ele>
  <time>2009-10-23T05:18:47Z</time>
</trkpt>
<trkpt lat="31.845019050" lon="35.025681825">
  <ele>243.350830</ele>
  <time>2009-10-23T05:18:54Z</time>
</trkpt>
<trkpt lat="31.845052578" lon="35.025178492">
  <ele>243.831543</ele>
  <time>2009-10-23T05:19:15Z</time>
</trkpt>
<trkpt lat="31.845143186" lon="35.024576336">
  <ele>245.273438</ele>
  <time>2009-10-23T05:19:38Z</time>
</trkpt>
<trkpt lat="31.845233459" lon="35.024440465">
  <ele>245.273438</ele>
  <time>2009-10-23T05:19:45Z</time>
</trkpt>
<trkpt lat="31.846048096" lon="35.023965631">
  <ele>244.312256</ele>
  <time>2009-10-23T05:20:17Z</time>
</trkpt>
<trkpt lat="31.846361663" lon="35.023701265">
  <ele>245.754150</ele>
  <time>2009-10-23T05:20:33Z</time>
</trkpt>
<trkpt lat="31.846631644" lon="35.023377892">
  <ele>249.118774</ele>
  <time>2009-10-23T05:20:51Z</time>
</trkpt>
<trkpt lat="31.846694928" lon="35.023241937">
  <ele>250.080200</ele>
  <time>2009-10-23T05:20:58Z</time>
</trkpt>
<trkpt lat="31.846975889" lon="35.022101495">
  <ele>253.444702</ele>
  <time>2009-10-23T05:23:24Z</time>
</trkpt>
<trkpt lat="31.846962227" lon="35.021910472">
  <ele>253.925415</ele>
  <time>2009-10-23T05:23:31Z</time>
</trkpt>
<trkpt lat="31.846907493" lon="35.021769069">
  <ele>253.925415</ele>
  <time>2009-10-23T05:23:37Z</time>
</trkpt>
<trkpt lat="31.846613623" lon="35.021346034">
  <ele>251.041382</ele>
  <time>2009-10-23T05:23:49Z</time>
</trkpt>
<trkpt lat="31.846454618" lon="35.020905482">
  <ele>248.157593</ele>
  <time>2009-10-23T05:23:54Z</time>
</trkpt>
<trkpt lat="31.846426120" lon="35.020546066">
  <ele>249.118774</ele>
  <time>2009-10-23T05:23:59Z</time>
</trkpt>
<trkpt lat="31.846537348" lon="35.020321347">
  <ele>252.002808</ele>
  <time>2009-10-23T05:24:10Z</time>
</trkpt>
<trkpt lat="31.846637176" lon="35.020222692">
  <ele>253.444702</ele>
  <time>2009-10-23T05:24:18Z</time>
</trkpt>
<trkpt lat="31.847131541" lon="35.019938881">
  <ele>253.925415</ele>
  <time>2009-10-23T05:24:44Z</time>
</trkpt>
<trkpt lat="31.847319631" lon="35.019750539">
  <ele>252.483398</ele>
  <time>2009-10-23T05:24:49Z</time>
</trkpt>
<trkpt lat="31.847376628" lon="35.019632019">
  <ele>251.041382</ele>
  <time>2009-10-23T05:24:52Z</time>
</trkpt>
<trkpt lat="31.847371934" lon="35.019520288">
  <ele>250.080200</ele>
  <time>2009-10-23T05:24:55Z</time>
</trkpt>
<trkpt lat="31.847133972" lon="35.018999185">
  <ele>244.792847</ele>
  <time>2009-10-23T05:25:05Z</time>
</trkpt>
<trkpt lat="31.847031796" lon="35.018898938">
  <ele>244.312256</ele>
  <time>2009-10-23T05:25:07Z</time>
</trkpt>
<trkpt lat="31.846419331" lon="35.018608924">
  <ele>248.638184</ele>
  <time>2009-10-23T05:25:34Z</time>
</trkpt>
<trkpt lat="31.844918719" lon="35.018250179">
  <ele>267.383911</ele>
  <time>2009-10-23T05:31:27Z</time>
</trkpt>
<trkpt lat="31.844682768" lon="35.018266272">
  <ele>270.748413</ele>
  <time>2009-10-23T05:31:51Z</time>
</trkpt>
<trkpt lat="31.844619066" lon="35.018216483">
  <ele>271.229126</ele>
  <time>2009-10-23T05:32:00Z</time>
</trkpt>
<trkpt lat="31.844660891" lon="35.017748941">
  <ele>270.748413</ele>
  <time>2009-10-23T05:32:24Z</time>
</trkpt>
<trkpt lat="31.844745465" lon="35.017426992">
  <ele>271.709717</ele>
  <time>2009-10-23T05:32:38Z</time>
</trkpt>
<trkpt lat="31.845284337" lon="35.016299123">
  <ele>276.997070</ele>
  <time>2009-10-23T05:33:32Z</time>
</trkpt>
<trkpt lat="31.845465386" lon="35.016045989">
  <ele>279.880859</ele>
  <time>2009-10-23T05:33:49Z</time>
</trkpt>
<trkpt lat="31.845511654" lon="35.015804423">
  <ele>282.284302</ele>
  <time>2009-10-23T05:34:05Z</time>
</trkpt>
<trkpt lat="31.845495729" lon="35.015512146">
  <ele>285.648804</ele>
  <time>2009-10-23T05:34:43Z</time>
</trkpt>
<trkpt lat="31.845548870" lon="35.015404187">
  <ele>287.090820</ele>
  <time>2009-10-23T05:34:51Z</time>
</trkpt>
<trkpt lat="31.846030578" lon="35.015044520">
  <ele>291.897461</ele>
  <time>2009-10-23T05:35:36Z</time>
</trkpt>
<trkpt lat="31.846178519" lon="35.014996072">
  <ele>291.897461</ele>
  <time>2009-10-23T05:35:45Z</time>
</trkpt>
<trkpt lat="31.846580347" lon="35.014654677">
  <ele>290.455566</ele>
  <time>2009-10-23T05:36:03Z</time>
</trkpt>
<trkpt lat="31.846833564" lon="35.014131563">
  <ele>289.494141</ele>
  <time>2009-10-23T05:36:19Z</time>
</trkpt>
<trkpt lat="31.846830379" lon="35.013833167">
  <ele>289.974854</ele>
  <time>2009-10-23T05:36:25Z</time>
</trkpt>
<trkpt lat="31.846763073" lon="35.013556983">
  <ele>291.416748</ele>
  <time>2009-10-23T05:36:32Z</time>
</trkpt>
<trkpt lat="31.846496528" lon="35.012983829">
  <ele>290.455566</ele>
  <time>2009-10-23T05:36:45Z</time>
</trkpt>
<trkpt lat="31.846437268" lon="35.012461971">
  <ele>287.571411</ele>
  <time>2009-10-23T05:36:52Z</time>
</trkpt>
<trkpt lat="31.846268792" lon="35.011915052">
  <ele>286.129517</ele>
  <time>2009-10-23T05:36:59Z</time>
</trkpt>
<trkpt lat="31.846043989" lon="35.011559827">
  <ele>286.610229</ele>
  <time>2009-10-23T05:37:06Z</time>
</trkpt>
<trkpt lat="31.846057232" lon="35.011020368">
  <ele>286.129517</ele>
  <time>2009-10-23T05:37:15Z</time>
</trkpt>
<trkpt lat="31.846239539" lon="35.010502953">
  <ele>289.494141</ele>
  <time>2009-10-23T05:37:36Z</time>
</trkpt>
<trkpt lat="31.846453780" lon="35.010049576">
  <ele>290.455566</ele>
  <time>2009-10-23T05:37:52Z</time>
</trkpt>
<trkpt lat="31.846484039" lon="35.009866850">
  <ele>291.416748</ele>
  <time>2009-10-23T05:38:00Z</time>
</trkpt>
<trkpt lat="31.846441878" lon="35.009738691">
  <ele>291.897461</ele>
  <time>2009-10-23T05:38:08Z</time>
</trkpt>
<trkpt lat="31.846220596" lon="35.009563593">
  <ele>296.704102</ele>
  <time>2009-10-23T05:39:30Z</time>
</trkpt>
<trkpt lat="31.845949525" lon="35.009506261">
  <ele>303.433228</ele>
  <time>2009-10-23T05:40:13Z</time>
</trkpt>
<trkpt lat="31.845829245" lon="35.009313393">
  <ele>306.317261</ele>
  <time>2009-10-23T05:40:42Z</time>
</trkpt>
<trkpt lat="31.845877860" lon="35.009189676">
  <ele>308.239868</ele>
  <time>2009-10-23T05:40:54Z</time>
</trkpt>
<trkpt lat="31.845552893" lon="35.008889269">
  <ele>319.295044</ele>
  <time>2009-10-23T05:42:07Z</time>
</trkpt>
<trkpt lat="31.845359439" lon="35.008950038">
  <ele>321.217773</ele>
  <time>2009-10-23T05:42:29Z</time>
</trkpt>
<trkpt lat="31.845268160" lon="35.009063864">
  <ele>319.775635</ele>
  <time>2009-10-23T05:50:01Z</time>
</trkpt>
<trkpt lat="31.845285427" lon="35.009143241">
  <ele>319.775635</ele>
  <time>2009-10-23T05:50:08Z</time>
</trkpt>
<trkpt lat="31.845242679" lon="35.009331834">
  <ele>320.256348</ele>
  <time>2009-10-23T05:50:18Z</time>
</trkpt>
<trkpt lat="31.845046878" lon="35.009522354">
  <ele>325.062988</ele>
  <time>2009-10-23T05:52:04Z</time>
</trkpt>
<trkpt lat="31.844572546" lon="35.009781942">
  <ele>331.311523</ele>
  <time>2009-10-23T05:53:43Z</time>
</trkpt>
<trkpt lat="31.844595093" lon="35.009951591">
  <ele>330.350220</ele>
  <time>2009-10-23T05:53:48Z</time>
</trkpt>
<trkpt lat="31.844532648" lon="35.010598674">
  <ele>322.659668</ele>
  <time>2009-10-23T05:54:06Z</time>
</trkpt>
<trkpt lat="31.844375320" lon="35.011208123">
  <ele>313.527222</ele>
  <time>2009-10-23T05:54:19Z</time>
</trkpt>
<trkpt lat="31.844357550" lon="35.011514230">
  <ele>312.565796</ele>
  <time>2009-10-23T05:54:25Z</time>
</trkpt>
<trkpt lat="31.844184296" lon="35.011650268">
  <ele>314.007812</ele>
  <time>2009-10-23T05:54:37Z</time>
</trkpt>
<trkpt lat="31.844018754" lon="35.011701565">
  <ele>315.449829</ele>
  <time>2009-10-23T05:54:49Z</time>
</trkpt>
<trkpt lat="31.843936862" lon="35.011783876">
  <ele>318.333618</ele>
  <time>2009-10-23T05:54:59Z</time>
</trkpt>
<trkpt lat="31.843896043" lon="35.011927122">
  <ele>318.814331</ele>
  <time>2009-10-23T05:55:06Z</time>
</trkpt>
<trkpt lat="31.843920434" lon="35.012066849">
  <ele>319.775635</ele>
  <time>2009-10-23T05:55:14Z</time>
</trkpt>
<trkpt lat="31.844110619" lon="35.012298021">
  <ele>323.140381</ele>
  <time>2009-10-23T05:55:36Z</time>
</trkpt>
<trkpt lat="31.843996122" lon="35.012487536">
  <ele>325.543579</ele>
  <time>2009-10-23T05:55:55Z</time>
</trkpt>
<trkpt lat="31.843871064" lon="35.012602955">
  <ele>329.388916</ele>
  <time>2009-10-23T05:56:12Z</time>
</trkpt>
<trkpt lat="31.843851199" lon="35.012581330">
  <ele>330.350220</ele>
  <time>2009-10-23T05:56:24Z</time>
</trkpt>
<trkpt lat="31.843393631" lon="35.012756260">
  <ele>334.676147</ele>
  <time>2009-10-23T05:58:25Z</time>
</trkpt>
<trkpt lat="31.843235129" lon="35.012753997">
  <ele>337.560059</ele>
  <time>2009-10-23T05:58:46Z</time>
</trkpt>
<trkpt lat="31.843032539" lon="35.012620641">
  <ele>340.924683</ele>
  <time>2009-10-23T05:59:22Z</time>
</trkpt>
<trkpt lat="31.842727941" lon="35.012694234">
  <ele>343.808594</ele>
  <time>2009-10-23T05:59:53Z</time>
</trkpt>
<trkpt lat="31.842612689" lon="35.012769084">
  <ele>344.289429</ele>
  <time>2009-10-23T06:00:04Z</time>
</trkpt>
<trkpt lat="31.842450835" lon="35.013056919">
  <ele>345.250610</ele>
  <time>2009-10-23T06:00:22Z</time>
</trkpt>
<trkpt lat="31.842290070" lon="35.013218271">
  <ele>346.212036</ele>
  <time>2009-10-23T06:00:34Z</time>
</trkpt>
<trkpt lat="31.841776343" lon="35.013465034">
  <ele>348.615234</ele>
  <time>2009-10-23T06:01:06Z</time>
</trkpt>
<trkpt lat="31.841528574" lon="35.013658153">
  <ele>350.537842</ele>
  <time>2009-10-23T06:01:25Z</time>
</trkpt>
<trkpt lat="31.841096235" lon="35.014301548">
  <ele>351.979858</ele>
  <time>2009-10-23T06:01:53Z</time>
</trkpt>
<trkpt lat="31.840897081" lon="35.014774036">
  <ele>350.537842</ele>
  <time>2009-10-23T06:02:11Z</time>
</trkpt>
<trkpt lat="31.840790631" lon="35.015400248">
  <ele>348.615234</ele>
  <time>2009-10-23T06:02:26Z</time>
</trkpt>
<trkpt lat="31.840464324" lon="35.016066777">
  <ele>350.537842</ele>
  <time>2009-10-23T06:02:49Z</time>
</trkpt>
<trkpt lat="31.840105494" lon="35.016567428">
  <ele>351.499146</ele>
  <time>2009-10-23T06:03:10Z</time>
</trkpt>
<trkpt lat="31.839939784" lon="35.017230771">
  <ele>351.499146</ele>
  <time>2009-10-23T06:03:30Z</time>
</trkpt>
<trkpt lat="31.839815900" lon="35.017472925">
  <ele>350.057251</ele>
  <time>2009-10-23T06:03:36Z</time>
</trkpt>
<trkpt lat="31.839329163" lon="35.018089917">
  <ele>347.653931</ele>
  <time>2009-10-23T06:03:48Z</time>
</trkpt>
<trkpt lat="31.839143923" lon="35.018971693">
  <ele>343.327881</ele>
  <time>2009-10-23T06:04:06Z</time>
</trkpt>
<trkpt lat="31.839018278" lon="35.019319877">
  <ele>341.405273</ele>
  <time>2009-10-23T06:04:11Z</time>
</trkpt>
<trkpt lat="31.838719463" lon="35.019783899">
  <ele>338.040771</ele>
  <time>2009-10-23T06:04:19Z</time>
</trkpt>
<trkpt lat="31.837920751" lon="35.020202240">
  <ele>345.731323</ele>
  <time>2009-10-23T06:05:02Z</time>
</trkpt>
<trkpt lat="31.837435523" lon="35.020552436">
  <ele>349.576538</ele>
  <time>2009-10-23T06:05:39Z</time>
</trkpt>
<trkpt lat="31.836491134" lon="35.021138834">
  <ele>361.593140</ele>
  <time>2009-10-23T06:07:13Z</time>
</trkpt>
<trkpt lat="31.836351994" lon="35.021105474">
  <ele>363.996338</ele>
  <time>2009-10-23T06:07:26Z</time>
</trkpt>
<trkpt lat="31.836288879" lon="35.020933561">
  <ele>363.996338</ele>
  <time>2009-10-23T06:07:39Z</time>
</trkpt>
<trkpt lat="31.836343864" lon="35.020520668">
  <ele>368.322266</ele>
  <time>2009-10-23T06:08:08Z</time>
</trkpt>
<trkpt lat="31.836331962" lon="35.020088330">
  <ele>369.764282</ele>
  <time>2009-10-23T06:08:39Z</time>
</trkpt>
<trkpt lat="31.836431036" lon="35.019202530">
  <ele>375.051514</ele>
  <time>2009-10-23T06:09:37Z</time>
</trkpt>
<trkpt lat="31.836576546" lon="35.018894663">
  <ele>376.012817</ele>
  <time>2009-10-23T06:09:57Z</time>
</trkpt>
<trkpt lat="31.837320020" lon="35.017985227">
  <ele>376.974243</ele>
  <time>2009-10-23T06:10:46Z</time>
</trkpt>
<trkpt lat="31.837914716" lon="35.017350633">
  <ele>377.935425</ele>
  <time>2009-10-23T06:11:10Z</time>
</trkpt>
<trkpt lat="31.838354096" lon="35.016810000">
  <ele>379.377441</ele>
  <time>2009-10-23T06:11:29Z</time>
</trkpt>
<trkpt lat="31.838434478" lon="35.016636746">
  <ele>380.338745</ele>
  <time>2009-10-23T06:11:35Z</time>
</trkpt>
<trkpt lat="31.838431796" lon="35.016469276">
  <ele>380.338745</ele>
  <time>2009-10-23T06:11:41Z</time>
</trkpt>
<trkpt lat="31.838145554" lon="35.015864018">
  <ele>380.338745</ele>
  <time>2009-10-23T06:12:03Z</time>
</trkpt>
<trkpt lat="31.838355269" lon="35.015607448">
  <ele>381.300049</ele>
  <time>2009-10-23T06:12:13Z</time>
</trkpt>
<trkpt lat="31.839022133" lon="35.014153272">
  <ele>385.625977</ele>
  <time>2009-10-23T06:13:13Z</time>
</trkpt>
<trkpt lat="31.839246517" lon="35.013350369">
  <ele>386.106689</ele>
  <time>2009-10-23T06:13:40Z</time>
</trkpt>
<trkpt lat="31.839561928" lon="35.012734048">
  <ele>388.510010</ele>
  <time>2009-10-23T06:14:05Z</time>
</trkpt>
<trkpt lat="31.839855798" lon="35.010788776">
  <ele>389.471191</ele>
  <time>2009-10-23T06:14:58Z</time>
</trkpt>
<trkpt lat="31.839961996" lon="35.010549556">
  <ele>389.951904</ele>
  <time>2009-10-23T06:15:04Z</time>
</trkpt>
<trkpt lat="31.840381678" lon="35.009892918">
  <ele>389.951904</ele>
  <time>2009-10-23T06:15:25Z</time>
</trkpt>
<trkpt lat="31.840511430" lon="35.009830138">
  <ele>389.951904</ele>
  <time>2009-10-23T06:15:29Z</time>
</trkpt>
<trkpt lat="31.840654928" lon="35.009843130">
  <ele>389.471191</ele>
  <time>2009-10-23T06:15:35Z</time>
</trkpt>
<trkpt lat="31.840781244" lon="35.009916136">
  <ele>389.471191</ele>
  <time>2009-10-23T06:15:41Z</time>
</trkpt>
<trkpt lat="31.841157423" lon="35.009984365">
  <ele>386.106689</ele>
  <time>2009-10-23T06:15:49Z</time>
</trkpt>
<trkpt lat="31.841677018" lon="35.009761490">
  <ele>381.300049</ele>
  <time>2009-10-23T06:15:59Z</time>
</trkpt>
<trkpt lat="31.841851948" lon="35.009526461">
  <ele>379.858032</ele>
  <time>2009-10-23T06:16:05Z</time>
</trkpt>
<trkpt lat="31.842243299" lon="35.009256396">
  <ele>375.532104</ele>
  <time>2009-10-23T06:16:13Z</time>
</trkpt>
<trkpt lat="31.842478495" lon="35.008965377">
  <ele>372.167480</ele>
  <time>2009-10-23T06:16:19Z</time>
</trkpt>
<trkpt lat="31.842592573" lon="35.008696485">
  <ele>368.322266</ele>
  <time>2009-10-23T06:16:24Z</time>
</trkpt>
<trkpt lat="31.842624927" lon="35.008197762">
  <ele>363.035034</ele>
  <time>2009-10-23T06:16:31Z</time>
</trkpt>
<trkpt lat="31.842696257" lon="35.007999698">
  <ele>361.112427</ele>
  <time>2009-10-23T06:16:36Z</time>
</trkpt>
<trkpt lat="31.842831038" lon="35.007964494">
  <ele>360.631714</ele>
  <time>2009-10-23T06:16:40Z</time>
</trkpt>
<trkpt lat="31.843401259" lon="35.007966254">
  <ele>355.825195</ele>
  <time>2009-10-23T06:16:51Z</time>
</trkpt>
<trkpt lat="31.843517181" lon="35.007906659">
  <ele>354.383179</ele>
  <time>2009-10-23T06:16:54Z</time>
</trkpt>
<trkpt lat="31.843675766" lon="35.007577669">
  <ele>351.018433</ele>
  <time>2009-10-23T06:17:01Z</time>
</trkpt>
<trkpt lat="31.843939964" lon="35.007398631">
  <ele>347.173218</ele>
  <time>2009-10-23T06:17:09Z</time>
</trkpt>
<trkpt lat="31.844023867" lon="35.007222947">
  <ele>345.731323</ele>
  <time>2009-10-23T06:17:13Z</time>
</trkpt>
<trkpt lat="31.844310276" lon="35.007083556">
  <ele>342.366699</ele>
  <time>2009-10-23T06:17:22Z</time>
</trkpt>
<trkpt lat="31.844512951" lon="35.006798822">
  <ele>339.963379</ele>
  <time>2009-10-23T06:17:30Z</time>
</trkpt>
<trkpt lat="31.844755523" lon="35.006101280">
  <ele>332.272827</ele>
  <time>2009-10-23T06:17:44Z</time>
</trkpt>
<trkpt lat="31.844690731" lon="35.005980581">
  <ele>331.792114</ele>
  <time>2009-10-23T06:17:48Z</time>
</trkpt>
<trkpt lat="31.844550585" lon="35.005926853">
  <ele>331.311523</ele>
  <time>2009-10-23T06:20:14Z</time>
</trkpt>
<trkpt lat="31.843813062" lon="35.005395859">
  <ele>329.388916</ele>
  <time>2009-10-23T06:20:34Z</time>
</trkpt>
<trkpt lat="31.843647938" lon="35.005165692">
  <ele>328.427612</ele>
  <time>2009-10-23T06:20:39Z</time>
</trkpt>
<trkpt lat="31.843453897" lon="35.004679877">
  <ele>325.062988</ele>
  <time>2009-10-23T06:20:46Z</time>
</trkpt>
<trkpt lat="31.843444426" lon="35.004290370">
  <ele>322.659668</ele>
  <time>2009-10-23T06:20:51Z</time>
</trkpt>
<trkpt lat="31.843716921" lon="35.003647394">
  <ele>317.853027</ele>
  <time>2009-10-23T06:20:59Z</time>
</trkpt>
<trkpt lat="31.843867796" lon="35.003481265">
  <ele>315.930420</ele>
  <time>2009-10-23T06:21:03Z</time>
</trkpt>
<trkpt lat="31.843968378" lon="35.003230479">
  <ele>314.007812</ele>
  <time>2009-10-23T06:21:07Z</time>
</trkpt>
<trkpt lat="31.843853295" lon="35.003052279">
  <ele>311.604492</ele>
  <time>2009-10-23T06:21:10Z</time>
</trkpt>
<trkpt lat="31.843711054" lon="35.003008358">
  <ele>310.162476</ele>
  <time>2009-10-23T06:21:12Z</time>
</trkpt>
<trkpt lat="31.843252396" lon="35.003191251">
  <ele>307.759277</ele>
  <time>2009-10-23T06:21:19Z</time>
</trkpt>
<trkpt lat="31.843147287" lon="35.003119251">
  <ele>307.278564</ele>
  <time>2009-10-23T06:21:22Z</time>
</trkpt>
<trkpt lat="31.843213839" lon="35.002918420">
  <ele>306.317261</ele>
  <time>2009-10-23T06:21:25Z</time>
</trkpt>
<trkpt lat="31.843270082" lon="35.002547018">
  <ele>304.875244</ele>
  <time>2009-10-23T06:21:30Z</time>
</trkpt>
<trkpt lat="31.843135888" lon="35.002315929">
  <ele>304.875244</ele>
  <time>2009-10-23T06:21:34Z</time>
</trkpt>
<trkpt lat="31.843111748" lon="35.002082577">
  <ele>304.875244</ele>
  <time>2009-10-23T06:21:38Z</time>
</trkpt>
<trkpt lat="31.843546852" lon="35.001655519">
  <ele>300.549316</ele>
  <time>2009-10-23T06:21:47Z</time>
</trkpt>
<trkpt lat="31.843928145" lon="35.001417557">
  <ele>296.223511</ele>
  <time>2009-10-23T06:21:53Z</time>
</trkpt>
<trkpt lat="31.844054125" lon="35.001262240">
  <ele>294.300781</ele>
  <time>2009-10-23T06:21:55Z</time>
</trkpt>
<trkpt lat="31.844306421" lon="35.000737282">
  <ele>289.013550</ele>
  <time>2009-10-23T06:22:03Z</time>
</trkpt>
<trkpt lat="31.844616467" lon="34.999660039">
  <ele>281.322998</ele>
  <time>2009-10-23T06:22:40Z</time>
</trkpt>
<trkpt lat="31.845163219" lon="34.999164417">
  <ele>279.400269</ele>
  <time>2009-10-23T06:22:56Z</time>
</trkpt>
<trkpt lat="31.845260784" lon="34.999031229">
  <ele>278.919678</ele>
  <time>2009-10-23T06:23:02Z</time>
</trkpt>
<trkpt lat="31.845244691" lon="34.998843474">
  <ele>277.477661</ele>
  <time>2009-10-23T06:23:06Z</time>
</trkpt>
<trkpt lat="31.845293138" lon="34.998531332">
  <ele>275.555054</ele>
  <time>2009-10-23T06:23:11Z</time>
</trkpt>
<trkpt lat="31.845728075" lon="34.997893218">
  <ele>271.229126</ele>
  <time>2009-10-23T06:23:22Z</time>
</trkpt>
<trkpt lat="31.845819522" lon="34.997589625">
  <ele>268.345093</ele>
  <time>2009-10-23T06:23:28Z</time>
</trkpt>
<trkpt lat="31.845806530" lon="34.997332469">
  <ele>266.422485</ele>
  <time>2009-10-23T06:23:32Z</time>
</trkpt>
<trkpt lat="31.845595473" lon="34.996567955">
  <ele>259.693359</ele>
  <time>2009-10-23T06:23:40Z</time>
</trkpt>
<trkpt lat="31.845179982" lon="34.995872090">
  <ele>253.925415</ele>
  <time>2009-10-23T06:23:50Z</time>
</trkpt>
<trkpt lat="31.844937326" lon="34.995819535">
  <ele>249.599487</ele>
  <time>2009-10-23T06:23:55Z</time>
</trkpt>
<trkpt lat="31.844527451" lon="34.995846860">
  <ele>241.908936</ele>
  <time>2009-10-23T06:24:03Z</time>
</trkpt>
<trkpt lat="31.844463330" lon="34.995707469">
  <ele>239.024902</ele>
  <time>2009-10-23T06:24:08Z</time>
</trkpt>
<trkpt lat="31.844354281" lon="34.995240262">
  <ele>231.814941</ele>
  <time>2009-10-23T06:24:18Z</time>
</trkpt>
<trkpt lat="31.844282700" lon="34.995179577">
  <ele>227.489136</ele>
  <time>2009-10-23T06:25:32Z</time>
</trkpt>
<trkpt lat="31.844254453" lon="34.995090477">
  <ele>225.566528</ele>
  <time>2009-10-23T06:26:46Z</time>
</trkpt>
<trkpt lat="31.844700789" lon="34.994486645">
  <ele>222.682495</ele>
  <time>2009-10-23T06:27:25Z</time>
</trkpt>
<trkpt lat="31.844659969" lon="34.994322443">
  <ele>221.721191</ele>
  <time>2009-10-23T06:29:28Z</time>
</trkpt>
<trkpt lat="31.843651962" lon="34.993488947">
  <ele>223.163208</ele>
  <time>2009-10-23T06:29:59Z</time>
</trkpt>
<trkpt lat="31.843555318" lon="34.993529934">
  <ele>223.163208</ele>
  <time>2009-10-23T06:30:03Z</time>
</trkpt>
<trkpt lat="31.842858950" lon="34.994567782">
  <ele>229.411743</ele>
  <time>2009-10-23T06:30:48Z</time>
</trkpt>
<trkpt lat="31.842820728" lon="34.994677166">
  <ele>229.892334</ele>
  <time>2009-10-23T06:30:54Z</time>
</trkpt>
<trkpt lat="31.843001945" lon="34.995565731">
  <ele>227.008545</ele>
  <time>2009-10-23T06:31:13Z</time>
</trkpt>
<trkpt lat="31.843093224" lon="34.995740745">
  <ele>227.008545</ele>
  <time>2009-10-23T06:31:17Z</time>
</trkpt>
<trkpt lat="31.843533441" lon="34.996148022">
  <ele>229.411743</ele>
  <time>2009-10-23T06:31:40Z</time>
</trkpt>
<trkpt lat="31.843474852" lon="34.996257573">
  <ele>231.334351</ele>
  <time>2009-10-23T06:31:47Z</time>
</trkpt>
<trkpt lat="31.843368569" lon="34.996312894">
  <ele>232.295776</ele>
  <time>2009-10-23T06:31:54Z</time>
</trkpt>
<trkpt lat="31.843075790" lon="34.996157074">
  <ele>232.295776</ele>
  <time>2009-10-23T06:32:06Z</time>
</trkpt>
<trkpt lat="31.842930699" lon="34.995977450">
  <ele>231.334351</ele>
  <time>2009-10-23T06:32:14Z</time>
</trkpt>
<trkpt lat="31.842742357" lon="34.995341599">
  <ele>231.334351</ele>
  <time>2009-10-23T06:32:30Z</time>
</trkpt>
<trkpt lat="31.842571953" lon="34.994412884">
  <ele>234.699097</ele>
  <time>2009-10-23T06:32:54Z</time>
</trkpt>
<trkpt lat="31.842578072" lon="34.994170144">
  <ele>235.179688</ele>
  <time>2009-10-23T06:33:01Z</time>
</trkpt>
<trkpt lat="31.842857273" lon="34.993426837">
  <ele>236.140991</ele>
  <time>2009-10-23T06:33:20Z</time>
</trkpt>
<trkpt lat="31.842931453" lon="34.993058536">
  <ele>237.582886</ele>
  <time>2009-10-23T06:33:28Z</time>
</trkpt>
<trkpt lat="31.842885185" lon="34.992854437">
  <ele>238.063599</ele>
  <time>2009-10-23T06:33:34Z</time>
</trkpt>
<trkpt lat="31.842712769" lon="34.992652098">
  <ele>240.467041</ele>
  <time>2009-10-23T06:33:43Z</time>
</trkpt>
<trkpt lat="31.842443626" lon="34.992537852">
  <ele>242.870239</ele>
  <time>2009-10-23T06:33:57Z</time>
</trkpt>
<trkpt lat="31.842339858" lon="34.992409274">
  <ele>243.831543</ele>
  <time>2009-10-23T06:34:06Z</time>
</trkpt>
<trkpt lat="31.842332566" lon="34.992306428">
  <ele>242.870239</ele>
  <time>2009-10-23T06:42:43Z</time>
</trkpt>
</trkseg>
</trk>

</gpx>
